Portada
METAR-TAF:

METAR-TAF

Aeroports :

Ha'il, Aràbia Saudita

latitud: 27-26N, longitud: 041-41E, altitud: 1015 m

Observació

L'informe es va fer fa 1 hora i 34 minuts, a les 22:00 UTC
Vent 4 kt del Nord/Nord-Est
Temperatura 14°C
Humitat 88%
Pressió 1021 hPa
Visibilitat 10 km o més
sense núvols per sota de 1500 mi sense presència de cumulonimbus.

METAR: OEHL 302200Z 03004KT CAVOK 14/12 Q1021

Hora: 02:34 (23:34 UTC)

Pronòstic

L'informe es va fer fa 12 hores i 34 minuts, a les 11:00 UTC
Pronòstic vàlid del 30 a les 12 UTC al 01 a les 18 UTC
Vent 10 kt del Nord/Nord-Oest
Visibilitat 10 km o més
Escasses núvols a una alçada de 4000 ft
Evolucionant progressivament
l' 30 a les 22 UTC al 01 a les 00 UTC
Vent 3 kt amb direcció variable
Visibilitat: 7000 m
Evolucionant progressivament
l' 01 a les 06 UTC al 01 a les 08 UTC
Vent 10 kt del Est

TAF: OEHL 301100Z 3012/0118 33010KT 9999 FEW040 BECMG 3022/0100 VRB03KT 7000 BECMG 0106/0108 09010KT

Observacions i pronòstics meteorològics de més de 4000 aeroports (METAR i TAF).

Les estacions disponibles són els punts grocs i vermells al mapa.

Posi el ratolí al punt desitjat per veure el nom de l'estació.

Feu clic per veure les observacions i els pronòstics meteorològics.

Per canviar el mapa: feu clic els botons verds amb una creu de color negre per apropar; al botó verd amb un guió per allunyar la imatge; o en les fletxes verdes per a mapes adjacents.


METAR-TAF: